sensor_id;sensor_type;location;lat;lon;timestamp;pressure;altitude;pressure_sealevel;temperature;humidity
73748;BME280;62056;52.130;5.428;2022-10-16T00:02:17;101171.03;;;12.92;75.49
73748;BME280;62056;52.130;5.428;2022-10-16T00:04:44;101167.25;;;12.93;75.21
73748;BME280;62056;52.130;5.428;2022-10-16T00:07:11;101170.53;;;12.90;75.46
73748;BME280;62056;52.130;5.428;2022-10-16T00:09:37;101165.19;;;12.90;75.68
73748;BME280;62056;52.130;5.428;2022-10-16T00:12:04;101164.38;;;12.89;76.00
73748;BME280;62056;52.130;5.428;2022-10-16T00:14:33;101162.50;;;12.90;76.09
73748;BME280;62056;52.130;5.428;2022-10-16T00:16:59;101167.34;;;12.88;76.15
73748;BME280;62056;52.130;5.428;2022-10-16T00:19:26;101159.63;;;12.86;75.84
73748;BME280;62056;52.130;5.428;2022-10-16T00:21:52;101164.97;;;12.86;76.27
73748;BME280;62056;52.130;5.428;2022-10-16T00:24:19;101172.19;;;12.86;76.16
73748;BME280;62056;52.130;5.428;2022-10-16T00:26:49;101185.03;;;12.84;76.50
73748;BME280;62056;52.130;5.428;2022-10-16T00:29:16;101177.03;;;12.84;75.98
73748;BME280;62056;52.130;5.428;2022-10-16T00:31:42;101173.53;;;12.83;76.53
73748;BME280;62056;52.130;5.428;2022-10-16T00:34:09;101177.53;;;12.86;76.33
73748;BME280;62056;52.130;5.428;2022-10-16T00:36:35;101176.72;;;12.85;76.93
73748;BME280;62056;52.130;5.428;2022-10-16T00:39:02;101168.72;;;12.85;76.31
73748;BME280;62056;52.130;5.428;2022-10-16T00:41:30;101166.84;;;12.86;76.42
73748;BME280;62056;52.130;5.428;2022-10-16T00:44:02;101163.09;;;12.87;77.09
73748;BME280;62056;52.130;5.428;2022-10-16T00:46:43;101168.91;;;12.89;77.14
73748;BME280;62056;52.130;5.428;2022-10-16T00:49:12;101167.03;;;12.89;76.86
73748;BME280;62056;52.130;5.428;2022-10-16T00:51:45;101173.19;;;12.90;77.24
73748;BME280;62056;52.130;5.428;2022-10-16T00:54:16;101178.53;;;12.90;77.04
73748;BME280;62056;52.130;5.428;2022-10-16T00:56:44;101167.03;;;12.89;77.54
73748;BME280;62056;52.130;5.428;2022-10-16T00:59:19;101171.31;;;12.90;77.17
73748;BME280;62056;52.130;5.428;2022-10-16T01:01:46;101174.75;;;12.91;77.52
73748;BME280;62056;52.130;5.428;2022-10-16T01:04:13;101169.91;;;12.93;77.05
73748;BME280;62056;52.130;5.428;2022-10-16T01:06:51;101172.59;;;12.93;77.94
73748;BME280;62056;52.130;5.428;2022-10-16T01:09:36;101175.47;;;12.96;78.15
73748;BME280;62056;52.130;5.428;2022-10-16T01:12:12;101190.69;;;12.96;78.10
73748;BME280;62056;52.130;5.428;2022-10-16T01:14:55;101190.38;;;12.98;78.65
73748;BME280;62056;52.130;5.428;2022-10-16T01:20:40;101176.75;;;12.99;78.87
73748;BME280;62056;52.130;5.428;2022-10-16T01:28:35;101168.66;;;13.04;78.81
73748;BME280;62056;52.130;5.428;2022-10-16T01:31:04;101171.03;;;13.06;78.30
73748;BME280;62056;52.130;5.428;2022-10-16T01:33:40;101174.19;;;13.08;78.21
73748;BME280;62056;52.130;5.428;2022-10-16T01:36:28;101179.25;;;13.09;78.21
73748;BME280;62056;52.130;5.428;2022-10-16T01:39:00;101170.16;;;13.10;78.30
73748;BME280;62056;52.130;5.428;2022-10-16T01:41:36;101173.63;;;13.11;78.27
73748;BME280;62056;52.130;5.428;2022-10-16T01:44:18;101177.84;;;13.12;79.12
73748;BME280;62056;52.130;5.428;2022-10-16T01:46:48;101175.19;;;13.12;79.54
73748;BME280;62056;52.130;5.428;2022-10-16T01:49:17;101168.78;;;13.13;78.94
73748;BME280;62056;52.130;5.428;2022-10-16T01:51:47;101169.06;;;13.11;79.17
73748;BME280;62056;52.130;5.428;2022-10-16T01:54:16;101163.44;;;13.13;78.97
73748;BME280;62056;52.130;5.428;2022-10-16T01:56:47;101166.59;;;13.15;78.37
73748;BME280;62056;52.130;5.428;2022-10-16T01:59:18;101168.19;;;13.16;78.73
73748;BME280;62056;52.130;5.428;2022-10-16T02:01:56;101171.63;;;13.16;78.81
73748;BME280;62056;52.130;5.428;2022-10-16T02:04:29;101168.47;;;13.14;79.25
73748;BME280;62056;52.130;5.428;2022-10-16T02:06:58;101160.16;;;13.16;79.18
73748;BME280;62056;52.130;5.428;2022-10-16T02:09:25;101159.66;;;13.14;79.14
73748;BME280;62056;52.130;5.428;2022-10-16T02:11:53;101157.78;;;13.14;79.23
73748;BME280;62056;52.130;5.428;2022-10-16T02:14:23;101172.44;;;13.17;79.02
73748;BME280;62056;52.130;5.428;2022-10-16T02:16:51;101166.59;;;13.15;79.15
73748;BME280;62056;52.130;5.428;2022-10-16T02:19:18;101160.44;;;13.14;79.71
73748;BME280;62056;52.130;5.428;2022-10-16T02:21:54;101167.69;;;13.14;79.22
73748;BME280;62056;52.130;5.428;2022-10-16T02:24:33;101166.59;;;13.15;80.00
73748;BME280;62056;52.130;5.428;2022-10-16T02:27:09;101170.34;;;13.14;79.46
73748;BME280;62056;52.130;5.428;2022-10-16T02:29:43;101175.69;;;13.14;79.48
73748;BME280;62056;52.130;5.428;2022-10-16T02:32:17;101187.16;;;13.14;79.74
73748;BME280;62056;52.130;5.428;2022-10-16T02:34:47;101177.28;;;13.15;80.37
73748;BME280;62056;52.130;5.428;2022-10-16T02:37:16;101170.66;;;13.12;79.42
73748;BME280;62056;52.130;5.428;2022-10-16T02:39:44;101168.28;;;13.11;79.38
73748;BME280;62056;52.130;5.428;2022-10-16T02:42:18;101179.53;;;13.08;79.50
73748;BME280;62056;52.130;5.428;2022-10-16T02:44:45;101186.75;;;13.07;80.25
73748;BME280;62056;52.130;5.428;2022-10-16T02:47:11;101183.31;;;13.07;80.10
73748;BME280;62056;52.130;5.428;2022-10-16T02:49:39;101182.53;;;13.06;79.38
73748;BME280;62056;52.130;5.428;2022-10-16T02:52:05;101185.75;;;13.03;80.27
73748;BME280;62056;52.130;5.428;2022-10-16T02:54:35;101186.03;;;13.02;79.91
73748;BME280;62056;52.130;5.428;2022-10-16T02:57:02;101196.22;;;13.00;80.23
73748;BME280;62056;52.130;5.428;2022-10-16T02:59:29;101195.44;;;12.99;79.87
73748;BME280;62056;52.130;5.428;2022-10-16T03:01:55;101199.22;;;12.98;79.92
73748;BME280;62056;52.130;5.428;2022-10-16T03:04:22;101202.94;;;12.97;79.22
73748;BME280;62056;52.130;5.428;2022-10-16T03:06:49;101199.50;;;12.96;80.02
73748;BME280;62056;52.130;5.428;2022-10-16T03:09:15;101196.03;;;12.96;79.70
73748;BME280;62056;52.130;5.428;2022-10-16T03:11:42;101191.50;;;12.96;80.77
73748;BME280;62056;52.130;5.428;2022-10-16T03:14:08;101187.53;;;12.94;80.72
73748;BME280;62056;52.130;5.428;2022-10-16T03:16:35;101182.97;;;12.94;80.51
73748;BME280;62056;52.130;5.428;2022-10-16T03:19:01;101187.53;;;12.94;80.23
73748;BME280;62056;52.130;5.428;2022-10-16T03:21:28;101181.38;;;12.93;80.27
73748;BME280;62056;52.130;5.428;2022-10-16T03:23:56;101187.53;;;12.94;80.13
73748;BME280;62056;52.130;5.428;2022-10-16T03:26:22;101196.59;;;12.93;80.79
73748;BME280;62056;52.130;5.428;2022-10-16T03:28:49;101195.03;;;12.92;80.20
73748;BME280;62056;52.130;5.428;2022-10-16T03:31:15;101191.06;;;12.89;80.60
73748;BME280;62056;52.130;5.428;2022-10-16T03:33:42;101192.44;;;12.87;80.04
73748;BME280;62056;52.130;5.428;2022-10-16T03:36:09;101202.34;;;12.86;80.56
73748;BME280;62056;52.130;5.428;2022-10-16T03:38:36;101197.28;;;12.85;81.07
73748;BME280;62056;52.130;5.428;2022-10-16T03:41:02;101202.91;;;12.83;80.51
73748;BME280;62056;52.130;5.428;2022-10-16T03:43:30;101202.91;;;12.83;80.96
73748;BME280;62056;52.130;5.428;2022-10-16T03:45:56;101208.56;;;12.82;80.87
73748;BME280;62056;52.130;5.428;2022-10-16T03:48:23;101209.63;;;12.81;80.67
73748;BME280;62056;52.130;5.428;2022-10-16T03:50:50;101206.44;;;12.79;80.91
73748;BME280;62056;52.130;5.428;2022-10-16T03:53:20;101210.22;;;12.78;81.02
73748;BME280;62056;52.130;5.428;2022-10-16T03:55:46;101208.94;;;12.75;80.79
73748;BME280;62056;52.130;5.428;2022-10-16T03:58:13;101216.44;;;12.73;81.30
73748;BME280;62056;52.130;5.428;2022-10-16T04:00:44;101217.22;;;12.73;80.69
73748;BME280;62056;52.130;5.428;2022-10-16T04:03:11;101222.06;;;12.71;80.55
73748;BME280;62056;52.130;5.428;2022-10-16T04:05:38;101219.94;;;12.68;81.18
73748;BME280;62056;52.130;5.428;2022-10-16T04:08:04;101221.84;;;12.68;80.77
73748;BME280;62056;52.130;5.428;2022-10-16T04:10:31;101227.75;;;12.65;81.52
73748;BME280;62056;52.130;5.428;2022-10-16T04:12:58;101230.13;;;12.66;81.55
73748;BME280;62056;52.130;5.428;2022-10-16T04:15:25;101228.56;;;12.65;81.22
73748;BME280;62056;52.130;5.428;2022-10-16T04:17:52;101237.63;;;12.64;81.35
73748;BME280;62056;52.130;5.428;2022-10-16T04:20:18;101246.72;;;12.63;81.25
73748;BME280;62056;52.130;5.428;2022-10-16T04:22:45;101247.00;;;12.62;81.50
73748;BME280;62056;52.130;5.428;2022-10-16T04:25:12;101255.59;;;12.59;81.68
73748;BME280;62056;52.130;5.428;2022-10-16T04:27:38;101248.66;;;12.58;80.91
73748;BME280;62056;52.130;5.428;2022-10-16T04:30:10;101252.44;;;12.57;81.33
73748;BME280;62056;52.130;5.428;2022-10-16T04:32:37;101258.03;;;12.55;81.50
73748;BME280;62056;52.130;5.428;2022-10-16T04:35:04;101261.00;;;12.53;81.56
73748;BME280;62056;52.130;5.428;2022-10-16T04:37:31;101262.38;;;12.51;81.14
73748;BME280;62056;52.130;5.428;2022-10-16T04:39:57;101268.50;;;12.51;81.86
73748;BME280;62056;52.130;5.428;2022-10-16T04:42:24;101273.31;;;12.49;81.82
73748;BME280;62056;52.130;5.428;2022-10-16T04:44:50;101273.31;;;12.49;81.87
73748;BME280;62056;52.130;5.428;2022-10-16T04:47:17;101273.31;;;12.49;82.01
73748;BME280;62056;52.130;5.428;2022-10-16T04:49:43;101267.19;;;12.49;82.23
73748;BME280;62056;52.130;5.428;2022-10-16T04:52:10;101288.53;;;12.49;82.29
73748;BME280;62056;52.130;5.428;2022-10-16T04:54:36;101284.78;;;12.50;82.58
73748;BME280;62056;52.130;5.428;2022-10-16T04:57:03;101279.75;;;12.48;82.09
73748;BME280;62056;52.130;5.428;2022-10-16T04:59:31;101288.53;;;12.49;81.89
73748;BME280;62056;52.130;5.428;2022-10-16T05:01:58;101290.94;;;12.50;82.49
73748;BME280;62056;52.130;5.428;2022-10-16T05:04:24;101291.22;;;12.49;82.21
73748;BME280;62056;52.130;5.428;2022-10-16T05:06:51;101304.03;;;12.47;82.22
73748;BME280;62056;52.130;5.428;2022-10-16T05:09:17;101307.50;;;12.47;82.85
73748;BME280;62056;52.130;5.428;2022-10-16T05:11:44;101301.38;;;12.47;82.83
73748;BME280;62056;52.130;5.428;2022-10-16T05:14:10;101301.66;;;12.45;82.38
73748;BME280;62056;52.130;5.428;2022-10-16T05:16:37;101313.41;;;12.44;81.79
73748;BME280;62056;52.130;5.428;2022-10-16T05:19:04;101315.28;;;12.44;82.56
73748;BME280;62056;52.130;5.428;2022-10-16T05:21:50;101324.63;;;12.41;82.36
73748;BME280;62056;52.130;5.428;2022-10-16T05:24:17;101323.84;;;12.41;82.06
73748;BME280;62056;52.130;5.428;2022-10-16T05:26:44;101330.28;;;12.40;82.39
73748;BME280;62056;52.130;5.428;2022-10-16T05:29:10;101325.50;;;12.37;82.57
73748;BME280;62056;52.130;5.428;2022-10-16T05:31:37;101338.84;;;12.37;82.35
73748;BME280;62056;52.130;5.428;2022-10-16T05:34:03;101337.25;;;12.35;82.30
73748;BME280;62056;52.130;5.428;2022-10-16T05:36:30;101336.75;;;12.33;82.62
73748;BME280;62056;52.130;5.428;2022-10-16T05:38:57;101335.16;;;12.32;82.50
73748;BME280;62056;52.130;5.428;2022-10-16T05:41:23;101348.75;;;12.31;82.70
73748;BME280;62056;52.130;5.428;2022-10-16T05:43:52;101353.03;;;12.32;82.97
73748;BME280;62056;52.130;5.428;2022-10-16T05:46:19;101360.25;;;12.31;82.95
73748;BME280;62056;52.130;5.428;2022-10-16T05:48:45;101358.94;;;12.29;83.15
73748;BME280;62056;52.130;5.428;2022-10-16T05:51:14;101368.00;;;12.28;82.91
73748;BME280;62056;52.130;5.428;2022-10-16T05:53:41;101362.41;;;12.29;82.95
73748;BME280;62056;52.130;5.428;2022-10-16T05:56:12;101376.25;;;12.31;83.31
73748;BME280;62056;52.130;5.428;2022-10-16T05:58:39;101382.09;;;12.33;83.22
73748;BME280;62056;52.130;5.428;2022-10-16T06:01:11;101387.44;;;12.33;83.23
73748;BME280;62056;52.130;5.428;2022-10-16T06:03:38;101386.34;;;12.34;83.03
73748;BME280;62056;52.130;5.428;2022-10-16T06:06:15;101388.22;;;12.34;83.05
73748;BME280;62056;52.130;5.428;2022-10-16T06:08:43;101384.97;;;12.37;83.25
73748;BME280;62056;52.130;5.428;2022-10-16T06:11:12;101390.03;;;12.39;83.70
73748;BME280;62056;52.130;5.428;2022-10-16T06:13:39;101393.19;;;12.41;83.37
73748;BME280;62056;52.130;5.428;2022-10-16T06:16:10;101398.25;;;12.42;83.57
73748;BME280;62056;52.130;5.428;2022-10-16T06:18:36;101400.94;;;12.42;83.56
73748;BME280;62056;52.130;5.428;2022-10-16T06:21:09;101410.50;;;12.43;82.83
73748;BME280;62056;52.130;5.428;2022-10-16T06:23:36;101411.00;;;12.45;82.99
73748;BME280;62056;52.130;5.428;2022-10-16T06:26:08;101419.84;;;12.46;83.02
73748;BME280;62056;52.130;5.428;2022-10-16T06:28:35;101424.06;;;12.47;83.05
73748;BME280;62056;52.130;5.428;2022-10-16T06:31:03;101419.53;;;12.47;83.88
73748;BME280;62056;52.130;5.428;2022-10-16T06:33:34;101428.03;;;12.49;83.90
73748;BME280;62056;52.130;5.428;2022-10-16T06:36:06;101423.72;;;12.53;84.35
73748;BME280;62056;52.130;5.428;2022-10-16T06:38:35;101413.78;;;12.59;84.15
73748;BME280;62056;52.130;5.428;2022-10-16T06:41:03;101424.91;;;12.66;84.49
73748;BME280;62056;52.130;5.428;2022-10-16T06:43:30;101432.28;;;12.74;85.07
73748;BME280;62056;52.130;5.428;2022-10-16T06:45:59;101438.84;;;12.82;85.19
73748;BME280;62056;52.130;5.428;2022-10-16T06:48:28;101443.28;;;12.92;85.54
73748;BME280;62056;52.130;5.428;2022-10-16T06:50:59;101455.69;;;13.02;86.04
73748;BME280;62056;52.130;5.428;2022-10-16T06:53:28;101456.94;;;13.09;86.79
73748;BME280;62056;52.130;5.428;2022-10-16T06:56:11;101460.84;;;13.17;86.83
73748;BME280;62056;52.130;5.428;2022-10-16T06:58:38;101468.50;;;13.24;87.01
73748;BME280;62056;52.130;5.428;2022-10-16T07:01:05;101457.75;;;13.29;87.51
73748;BME280;62056;52.130;5.428;2022-10-16T07:03:32;101465.44;;;13.35;87.27
73748;BME280;62056;52.130;5.428;2022-10-16T07:06:03;101465.34;;;13.41;87.21
73748;BME280;62056;52.130;5.428;2022-10-16T07:08:32;101456.16;;;13.47;87.10
73748;BME280;62056;52.130;5.428;2022-10-16T07:11:04;101450.94;;;13.55;87.21
73748;BME280;62056;52.130;5.428;2022-10-16T07:13:35;101465.81;;;13.62;87.92
73748;BME280;62056;52.130;5.428;2022-10-16T07:16:13;101468.13;;;13.68;87.44
73748;BME280;62056;52.130;5.428;2022-10-16T07:18:41;101469.94;;;13.73;87.47
73748;BME280;62056;52.130;5.428;2022-10-16T07:21:13;101474.09;;;13.79;87.20
73748;BME280;62056;52.130;5.428;2022-10-16T07:23:40;101475.59;;;13.85;86.69
73748;BME280;62056;52.130;5.428;2022-10-16T07:26:07;101491.06;;;13.88;86.63
73748;BME280;62056;52.130;5.428;2022-10-16T07:28:34;101491.47;;;13.95;86.74
73748;BME280;62056;52.130;5.428;2022-10-16T07:31:07;101496.75;;;14.01;86.47
73748;BME280;62056;52.130;5.428;2022-10-16T07:33:34;101491.63;;;14.04;86.10
73748;BME280;62056;52.130;5.428;2022-10-16T07:36:01;101500.16;;;14.06;85.88
73748;BME280;62056;52.130;5.428;2022-10-16T07:38:28;101507.28;;;14.11;85.98
73748;BME280;62056;52.130;5.428;2022-10-16T07:41:01;101514.63;;;14.19;85.88
73748;BME280;62056;52.130;5.428;2022-10-16T07:43:29;101519.38;;;14.22;85.78
73748;BME280;62056;52.130;5.428;2022-10-16T07:45:56;101529.19;;;14.27;85.76
73748;BME280;62056;52.130;5.428;2022-10-16T07:48:27;101530.00;;;14.27;84.92
73748;BME280;62056;52.130;5.428;2022-10-16T07:51:01;101538.22;;;14.31;84.70
73748;BME280;62056;52.130;5.428;2022-10-16T07:53:29;101542.50;;;14.32;84.45
73748;BME280;62056;52.130;5.428;2022-10-16T07:56:01;101560.34;;;14.36;85.19
73748;BME280;62056;52.130;5.428;2022-10-16T07:58:28;101564.91;;;14.36;84.68
73748;BME280;62056;52.130;5.428;2022-10-16T08:00:55;101564.63;;;14.37;84.75
73748;BME280;62056;52.130;5.428;2022-10-16T08:03:23;101568.09;;;14.38;84.88
73748;BME280;62056;52.130;5.428;2022-10-16T08:05:51;101559.44;;;14.41;84.64
73748;BME280;62056;52.130;5.428;2022-10-16T08:08:19;101566.13;;;14.44;84.64
73748;BME280;62056;52.130;5.428;2022-10-16T08:10:45;101562.34;;;14.45;84.58
73748;BME280;62056;52.130;5.428;2022-10-16T08:13:12;101560.66;;;14.49;84.59
73748;BME280;62056;52.130;5.428;2022-10-16T08:15:45;101576.13;;;14.52;84.60
73748;BME280;62056;52.130;5.428;2022-10-16T08:18:13;101571.25;;;14.54;83.44
73748;BME280;62056;52.130;5.428;2022-10-16T08:20:41;101583.50;;;14.60;81.40
73748;BME280;62056;52.130;5.428;2022-10-16T08:23:12;101585.00;;;14.66;83.73
73748;BME280;62056;52.130;5.428;2022-10-16T08:25:40;101576.09;;;14.71;83.66
73748;BME280;62056;52.130;5.428;2022-10-16T08:28:09;101589.00;;;14.69;81.86
73748;BME280;62056;52.130;5.428;2022-10-16T08:30:36;101595.03;;;14.74;82.45
73748;BME280;62056;52.130;5.428;2022-10-16T08:33:03;101595.13;;;14.83;83.09
73748;BME280;62056;52.130;5.428;2022-10-16T08:35:30;101592.09;;;14.90;82.52
73748;BME280;62056;52.130;5.428;2022-10-16T08:37:57;101601.13;;;14.94;82.44
73748;BME280;62056;52.130;5.428;2022-10-16T08:40:26;101607.53;;;14.93;81.92
73748;BME280;62056;52.130;5.428;2022-10-16T08:48:54;101618.66;;;15.14;79.58
73748;BME280;62056;52.130;5.428;2022-10-16T08:51:26;101623.72;;;15.15;82.14
73748;BME280;62056;52.130;5.428;2022-10-16T08:53:56;101622.84;;;15.20;81.42
73748;BME280;62056;52.130;5.428;2022-10-16T08:56:25;101638.13;;;15.20;80.53
73748;BME280;62056;52.130;5.428;2022-10-16T08:58:53;101645.47;;;15.28;81.07
73748;BME280;62056;52.130;5.428;2022-10-16T09:01:39;101648.03;;;15.33;80.22
73748;BME280;62056;52.130;5.428;2022-10-16T09:04:42;101635.81;;;15.41;78.89
73748;BME280;62056;52.130;5.428;2022-10-16T09:12:38;101639.38;;;15.64;80.48
73748;BME280;62056;52.130;5.428;2022-10-16T09:15:47;101650.78;;;15.69;79.50
73748;BME280;62056;52.130;5.428;2022-10-16T09:18:53;101647.22;;;15.74;78.65
73748;BME280;62056;52.130;5.428;2022-10-16T09:21:31;101658.81;;;15.83;78.92
73748;BME280;62056;52.130;5.428;2022-10-16T09:24:15;101664.09;;;15.88;76.68
73748;BME280;62056;52.130;5.428;2022-10-16T09:26:43;101667.94;;;15.96;79.61
73748;BME280;62056;52.130;5.428;2022-10-16T09:29:14;101661.53;;;16.06;79.29
73748;BME280;62056;52.130;5.428;2022-10-16T09:31:41;101662.22;;;16.11;77.74
73748;BME280;62056;52.130;5.428;2022-10-16T09:34:30;101675.03;;;16.14;76.56
73748;BME280;62056;52.130;5.428;2022-10-16T09:36:58;101676.69;;;16.24;76.79
73748;BME280;62056;52.130;5.428;2022-10-16T09:39:25;101675.78;;;16.29;78.03
73748;BME280;62056;52.130;5.428;2022-10-16T09:41:52;101675.84;;;16.37;76.79
73748;BME280;62056;52.130;5.428;2022-10-16T09:44:28;101672.41;;;16.46;77.86
73748;BME280;62056;52.130;5.428;2022-10-16T09:47:12;101673.09;;;16.51;78.00
73748;BME280;62056;52.130;5.428;2022-10-16T09:49:51;101681.19;;;16.60;76.91
73748;BME280;62056;52.130;5.428;2022-10-16T09:52:19;101686.16;;;16.67;74.96
73748;BME280;62056;52.130;5.428;2022-10-16T09:54:59;101682.56;;;16.71;76.59
73748;BME280;62056;52.130;5.428;2022-10-16T09:57:26;101688.47;;;16.59;75.35
73748;BME280;62056;52.130;5.428;2022-10-16T09:59:56;101691.34;;;16.63;76.19
73748;BME280;62056;52.130;5.428;2022-10-16T10:02:32;101699.94;;;16.74;76.31
73748;BME280;62056;52.130;5.428;2022-10-16T10:05:01;101701.63;;;16.84;76.32
73748;BME280;62056;52.130;5.428;2022-10-16T10:07:31;101702.13;;;16.94;76.19
73748;BME280;62056;52.130;5.428;2022-10-16T10:10:02;101708.78;;;16.97;71.92
73748;BME280;62056;52.130;5.428;2022-10-16T10:12:32;101704.72;;;17.08;75.09
73748;BME280;62056;52.130;5.428;2022-10-16T10:15:14;101701.25;;;17.08;69.04
73748;BME280;62056;52.130;5.428;2022-10-16T10:17:55;101700.69;;;17.19;71.92
73748;BME280;62056;52.130;5.428;2022-10-16T10:20:30;101689.50;;;17.35;72.92
73748;BME280;62056;52.130;5.428;2022-10-16T10:23:24;101697.47;;;17.49;72.80
73748;BME280;62056;52.130;5.428;2022-10-16T10:25:59;101704.09;;;17.51;73.13
73748;BME280;62056;52.130;5.428;2022-10-16T10:37:22;101717.44;;;17.74;68.36
73748;BME280;62056;52.130;5.428;2022-10-16T10:40:09;101726.34;;;17.83;70.46
73748;BME280;62056;52.130;5.428;2022-10-16T10:45:53;101727.00;;;17.97;70.64
73748;BME280;62056;52.130;5.428;2022-10-16T10:51:13;101736.03;;;18.02;68.98
73748;BME280;62056;52.130;5.428;2022-10-16T10:54:17;101740.47;;;18.06;68.97
73748;BME280;62056;52.130;5.428;2022-10-16T10:56:55;101743.63;;;18.08;67.41
73748;BME280;62056;52.130;5.428;2022-10-16T11:00:03;101742.84;;;18.16;66.96
73748;BME280;62056;52.130;5.428;2022-10-16T11:05:45;101743.50;;;18.13;67.20
73748;BME280;62056;52.130;5.428;2022-10-16T11:08:19;101748.88;;;18.05;66.71
73748;BME280;62056;52.130;5.428;2022-10-16T11:13:30;101757.75;;;18.05;66.10
73748;BME280;62056;52.130;5.428;2022-10-16T11:16:02;101759.97;;;18.03;65.93
73748;BME280;62056;52.130;5.428;2022-10-16T11:18:49;101765.03;;;17.96;64.51
73748;BME280;62056;52.130;5.428;2022-10-16T11:21:19;101760.13;;;17.98;65.67
73748;BME280;62056;52.130;5.428;2022-10-16T11:24:00;101767.66;;;17.87;63.46
73748;BME280;62056;52.130;5.428;2022-10-16T11:26:32;101768.63;;;17.83;65.03
73748;BME280;62056;52.130;5.428;2022-10-16T11:29:01;101774.13;;;17.77;65.49
73748;BME280;62056;52.130;5.428;2022-10-16T11:31:55;101786.44;;;17.78;65.33
73748;BME280;62056;52.130;5.428;2022-10-16T11:34:32;101776.94;;;17.72;64.58
73748;BME280;62056;52.130;5.428;2022-10-16T11:37:23;101770.63;;;17.77;63.96
73748;BME280;62056;52.130;5.428;2022-10-16T11:39:55;101775.59;;;17.84;64.92
73748;BME280;62056;52.130;5.428;2022-10-16T11:42:33;101776.22;;;17.89;65.05
73748;BME280;62056;52.130;5.428;2022-10-16T11:45:27;101780.34;;;17.95;64.51
73748;BME280;62056;52.130;5.428;2022-10-16T11:48:08;101781.47;;;18.03;65.57
73748;BME280;62056;52.130;5.428;2022-10-16T11:50:50;101786.69;;;18.08;65.07
73748;BME280;62056;52.130;5.428;2022-10-16T11:53:44;101785.47;;;18.23;64.29
73748;BME280;62056;52.130;5.428;2022-10-16T11:56:15;101788.97;;;18.15;62.49
73748;BME280;62056;52.130;5.428;2022-10-16T11:59:00;101783.72;;;18.18;61.83
73748;BME280;62056;52.130;5.428;2022-10-16T12:01:48;101779.75;;;18.16;59.55
73748;BME280;62056;52.130;5.428;2022-10-16T12:04:36;101787.72;;;18.30;60.73
73748;BME280;62056;52.130;5.428;2022-10-16T12:07:19;101794.47;;;18.18;59.58
73748;BME280;62056;52.130;5.428;2022-10-16T12:09:48;101792.91;;;18.26;60.27
73748;BME280;62056;52.130;5.428;2022-10-16T12:12:38;101793.41;;;18.28;56.35
73748;BME280;62056;52.130;5.428;2022-10-16T12:15:21;101803.06;;;18.38;60.27
73748;BME280;62056;52.130;5.428;2022-10-16T12:18:22;101802.28;;;18.46;59.94
73748;BME280;62056;52.130;5.428;2022-10-16T12:20:58;101799.75;;;18.41;59.22
73748;BME280;62056;52.130;5.428;2022-10-16T12:23:31;101802.13;;;18.43;59.86
73748;BME280;62056;52.130;5.428;2022-10-16T12:26:00;101802.59;;;18.45;59.71
73748;BME280;62056;52.130;5.428;2022-10-16T12:28:30;101800.84;;;18.49;59.78
73748;BME280;62056;52.130;5.428;2022-10-16T12:31:01;101798.66;;;18.51;59.78
73748;BME280;62056;52.130;5.428;2022-10-16T12:33:30;101812.91;;;18.51;59.62
73748;BME280;62056;52.130;5.428;2022-10-16T12:36:00;101812.59;;;18.53;59.95
73748;BME280;62056;52.130;5.428;2022-10-16T12:41:03;101807.97;;;18.71;59.64
73748;BME280;62056;52.130;5.428;2022-10-16T12:43:39;101804.34;;;18.75;59.27
73748;BME280;62056;52.130;5.428;2022-10-16T12:48:37;101800.88;;;18.84;57.83
73748;BME280;62056;52.130;5.428;2022-10-16T12:56:35;101811.94;;;18.99;57.57
73748;BME280;62056;52.130;5.428;2022-10-16T12:59:42;101813.66;;;19.04;57.30
73748;BME280;62056;52.130;5.428;2022-10-16T13:02:49;101807.50;;;19.04;52.87
73748;BME280;62056;52.130;5.428;2022-10-16T13:08:11;101813.69;;;19.13;56.23
73748;BME280;62056;52.130;5.428;2022-10-16T13:16:40;101808.13;;;19.09;54.83
73748;BME280;62056;52.130;5.428;2022-10-16T13:19:44;101817.00;;;19.10;56.38
73748;BME280;62056;52.130;5.428;2022-10-16T13:22:42;101825.56;;;19.12;55.79
73748;BME280;62056;52.130;5.428;2022-10-16T13:27:55;101818.72;;;19.14;55.95
73748;BME280;62056;52.130;5.428;2022-10-16T13:30:26;101831.28;;;19.19;56.37
73748;BME280;62056;52.130;5.428;2022-10-16T13:33:04;101831.41;;;19.23;55.47
73748;BME280;62056;52.130;5.428;2022-10-16T13:35:34;101829.19;;;19.25;56.47
73748;BME280;62056;52.130;5.428;2022-10-16T13:38:14;101831.41;;;19.23;56.42
73748;BME280;62056;52.130;5.428;2022-10-16T13:41:12;101836.16;;;19.26;55.65
73748;BME280;62056;52.130;5.428;2022-10-16T13:43:44;101844.25;;;19.26;55.78
73748;BME280;62056;52.130;5.428;2022-10-16T13:46:14;101849.66;;;19.26;56.20
73748;BME280;62056;52.130;5.428;2022-10-16T13:48:41;101845.69;;;19.32;55.95
73748;BME280;62056;52.130;5.428;2022-10-16T13:51:16;101840.91;;;19.29;55.51
73748;BME280;62056;52.130;5.428;2022-10-16T13:53:44;101844.72;;;19.28;56.06
73748;BME280;62056;52.130;5.428;2022-10-16T13:56:14;101839.34;;;19.28;56.41
73748;BME280;62056;52.130;5.428;2022-10-16T13:58:42;101837.91;;;19.30;56.01
73748;BME280;62056;52.130;5.428;2022-10-16T14:01:18;101842.97;;;19.32;54.58
73748;BME280;62056;52.130;5.428;2022-10-16T14:03:46;101848.53;;;19.27;55.77
73748;BME280;62056;52.130;5.428;2022-10-16T14:06:16;101855.34;;;19.24;55.71
73748;BME280;62056;52.130;5.428;2022-10-16T14:08:48;101854.41;;;19.20;55.06
73748;BME280;62056;52.130;5.428;2022-10-16T14:11:23;101860.13;;;19.18;54.49
73748;BME280;62056;52.130;5.428;2022-10-16T14:13:51;101867.09;;;19.19;55.74
73748;BME280;62056;52.130;5.428;2022-10-16T14:16:29;101858.22;;;19.19;54.40
73748;BME280;62056;52.130;5.428;2022-10-16T14:19:02;101861.41;;;19.21;55.50